createdAt,value
2023-06-30T00:02:07.724Z,2.55
2023-06-30T00:04:36.837Z,3.67
2023-06-30T00:07:05.861Z,2.30
2023-06-30T00:09:34.165Z,3.72
2023-06-30T00:12:03.855Z,3.05
2023-06-30T00:14:32.087Z,2.50
2023-06-30T00:17:00.489Z,2.50
2023-06-30T00:19:28.730Z,3.25
2023-06-30T00:21:57.001Z,3.63
2023-06-30T00:24:25.272Z,2.40
2023-06-30T00:26:53.573Z,2.85
2023-06-30T00:29:23.162Z,2.55
2023-06-30T00:31:51.470Z,2.85
2023-06-30T00:34:19.643Z,3.08
2023-06-30T00:36:47.966Z,3.47
2023-06-30T00:39:16.233Z,3.15
2023-06-30T00:41:44.404Z,3.28
2023-06-30T00:44:12.515Z,2.55
2023-06-30T00:46:42.341Z,2.40
2023-06-30T00:49:10.591Z,3.15
2023-06-30T00:51:39.164Z,3.60
2023-06-30T00:54:07.504Z,3.22
2023-06-30T00:56:35.844Z,2.72
2023-06-30T00:59:04.083Z,2.22
2023-06-30T01:01:40.338Z,3.63
2023-06-30T01:04:16.777Z,2.90
2023-06-30T01:06:53.647Z,2.67
2023-06-30T01:09:26.035Z,3.08
2023-06-30T01:11:55.554Z,2.53
2023-06-30T01:14:25.033Z,2.85
2023-06-30T01:16:55.584Z,2.10
2023-06-30T01:19:29.478Z,4.00
2023-06-30T01:22:06.166Z,3.03
2023-06-30T01:24:36.597Z,2.60
2023-06-30T01:27:05.363Z,2.65
2023-06-30T01:29:34.458Z,2.72
2023-06-30T01:32:03.464Z,2.88
2023-06-30T01:34:33.672Z,3.00
2023-06-30T01:37:01.884Z,2.38
2023-06-30T01:39:30.134Z,3.15
2023-06-30T01:41:58.580Z,2.85
2023-06-30T01:44:27.124Z,2.92
2023-06-30T01:46:55.274Z,3.75
2023-06-30T01:49:24.200Z,2.63
2023-06-30T01:51:53.869Z,3.25
2023-06-30T01:54:22.274Z,3.40
2023-06-30T01:56:51.106Z,3.30
2023-06-30T01:59:19.318Z,2.72
2023-06-30T02:01:48.852Z,3.05
2023-06-30T02:04:17.801Z,3.83
2023-06-30T02:06:46.066Z,2.63
2023-06-30T02:09:15.803Z,2.38
2023-06-30T02:11:44.110Z,2.90
2023-06-30T02:14:12.427Z,2.85
2023-06-30T02:16:40.689Z,2.60
2023-06-30T02:19:08.945Z,2.33
2023-06-30T02:21:37.168Z,2.83
2023-06-30T02:24:05.904Z,3.17
2023-06-30T02:26:35.532Z,3.03
2023-06-30T02:29:03.748Z,2.88
2023-06-30T02:31:31.965Z,3.60
2023-06-30T02:34:00.221Z,2.92
2023-06-30T02:36:28.448Z,3.65
2023-06-30T02:38:56.733Z,3.25
2023-06-30T02:41:24.931Z,2.67
2023-06-30T02:43:54.583Z,2.42
2023-06-30T02:46:22.773Z,3.10
2023-06-30T02:48:51.093Z,2.72
2023-06-30T02:51:19.393Z,2.90
2023-06-30T02:53:47.567Z,2.63
2023-06-30T02:56:15.744Z,2.55
2023-06-30T02:58:44.098Z,2.97
2023-06-30T03:01:13.892Z,2.25
2023-06-30T03:03:44.077Z,2.25
2023-06-30T03:06:12.382Z,2.60
2023-06-30T03:08:40.572Z,2.28
2023-06-30T03:11:08.844Z,2.92
2023-06-30T03:13:37.454Z,2.53
2023-06-30T03:16:06.002Z,2.38
2023-06-30T03:18:35.837Z,2.45
2023-06-30T03:21:04.212Z,2.75
2023-06-30T03:23:32.574Z,2.22
2023-06-30T03:26:01.149Z,2.25
2023-06-30T03:28:29.381Z,2.25
2023-06-30T03:30:58.060Z,2.50
2023-06-30T03:33:26.544Z,1.92
2023-06-30T03:35:56.097Z,1.80
2023-06-30T03:38:24.310Z,1.52
2023-06-30T03:40:52.628Z,1.92
2023-06-30T03:43:24.464Z,1.90
2023-06-30T03:45:52.940Z,1.63
2023-06-30T03:48:21.760Z,1.75
2023-06-30T03:50:54.255Z,1.55
2023-06-30T03:53:24.355Z,1.60
2023-06-30T03:55:52.489Z,1.48
2023-06-30T03:58:20.791Z,1.45
2023-06-30T04:00:48.994Z,1.30
2023-06-30T04:03:17.394Z,1.25
2023-06-30T04:05:47.227Z,1.20
2023-06-30T04:08:15.738Z,1.63
2023-06-30T04:10:46.323Z,1.23
2023-06-30T04:13:14.470Z,1.67
2023-06-30T04:15:43.081Z,1.00
2023-06-30T04:18:11.597Z,0.90
2023-06-30T04:20:40.106Z,0.90
2023-06-30T04:23:08.302Z,1.15
2023-06-30T04:25:37.035Z,1.67
2023-06-30T04:28:06.672Z,0.80
2023-06-30T04:30:35.013Z,1.20
2023-06-30T04:33:03.314Z,1.10
2023-06-30T04:35:31.566Z,0.80
2023-06-30T04:37:59.848Z,0.63
2023-06-30T04:40:28.143Z,0.82
2023-06-30T04:42:56.447Z,0.70
2023-06-30T04:45:26.119Z,0.95
2023-06-30T04:47:54.594Z,1.00
2023-06-30T04:50:26.388Z,0.60
2023-06-30T04:52:54.661Z,0.80
2023-06-30T04:55:23.142Z,0.70
2023-06-30T04:57:51.447Z,1.13
2023-06-30T05:00:20.044Z,0.70
2023-06-30T05:02:50.596Z,1.10
2023-06-30T05:05:19.138Z,0.80
2023-06-30T05:07:47.971Z,0.80
2023-06-30T05:10:16.244Z,0.77
2023-06-30T05:12:44.656Z,0.82
2023-06-30T05:15:13.411Z,0.52
2023-06-30T05:17:41.753Z,0.50
2023-06-30T05:20:12.723Z,0.93
2023-06-30T05:22:40.889Z,0.70
2023-06-30T05:25:10.073Z,0.57
2023-06-30T05:27:38.280Z,0.60
2023-06-30T05:30:07.977Z,0.60
2023-06-30T05:32:36.361Z,0.38
2023-06-30T05:35:04.765Z,0.70
2023-06-30T05:37:34.322Z,0.60
2023-06-30T05:40:04.218Z,0.70
2023-06-30T05:42:32.440Z,0.30
2023-06-30T05:45:00.584Z,0.50
2023-06-30T05:47:28.796Z,0.28
2023-06-30T05:49:57.066Z,0.57
2023-06-30T05:52:26.343Z,0.50
2023-06-30T05:54:56.031Z,0.20
2023-06-30T05:57:24.338Z,0.43
2023-06-30T05:59:52.905Z,0.43
2023-06-30T06:02:21.224Z,0.20
2023-06-30T06:04:49.751Z,0.30
2023-06-30T06:07:18.122Z,0.20
2023-06-30T06:09:46.504Z,0.30
2023-06-30T06:12:16.036Z,0.30
2023-06-30T06:14:44.460Z,0.28
2023-06-30T06:17:12.899Z,0.40
2023-06-30T06:19:41.126Z,0.30
2023-06-30T06:22:09.319Z,0.30
2023-06-30T06:24:37.536Z,0.28
2023-06-30T06:27:06.461Z,0.20
2023-06-30T06:29:36.077Z,0.28
2023-06-30T06:32:04.386Z,0.20
2023-06-30T06:34:32.674Z,0.40
2023-06-30T06:37:01.676Z,0.30
2023-06-30T06:39:30.028Z,0.30
2023-06-30T06:41:58.972Z,0.30
2023-06-30T06:44:27.104Z,0.32
2023-06-30T06:47:30.806Z,0.32
2023-06-30T06:50:02.002Z,0.30
2023-06-30T06:52:30.181Z,0.40
2023-06-30T06:54:58.459Z,0.20
2023-06-30T06:57:26.676Z,0.30
2023-06-30T06:59:54.830Z,0.25
2023-06-30T07:02:23.030Z,0.32
2023-06-30T07:04:51.234Z,0.20
2023-06-30T07:07:20.930Z,0.20
2023-06-30T07:09:49.209Z,0.20
2023-06-30T07:12:17.475Z,0.20
2023-06-30T07:14:47.941Z,0.30
2023-06-30T07:17:16.808Z,0.20
2023-06-30T07:19:45.105Z,0.10
2023-06-30T07:22:13.352Z,0.15
2023-06-30T07:24:44.078Z,0.25
2023-06-30T07:27:12.419Z,0.20
2023-06-30T07:29:40.721Z,0.20
2023-06-30T07:32:09.445Z,0.10
2023-06-30T07:34:38.738Z,0.00
2023-06-30T07:37:09.242Z,0.30
2023-06-30T07:39:37.470Z,0.20
2023-06-30T07:42:07.720Z,0.30
2023-06-30T07:44:35.981Z,0.30
2023-06-30T07:47:04.186Z,0.08
2023-06-30T07:49:32.278Z,0.22
2023-06-30T07:52:00.420Z,0.10
2023-06-30T07:54:28.631Z,0.40
2023-06-30T07:56:56.866Z,0.22
2023-06-30T07:59:26.486Z,0.10
2023-06-30T08:01:54.705Z,0.30
2023-06-30T08:04:23.369Z,0.15
2023-06-30T08:06:51.873Z,0.30
2023-06-30T08:09:20.125Z,0.20
2023-06-30T08:11:48.364Z,0.30
2023-06-30T08:14:16.598Z,0.30
2023-06-30T08:16:46.594Z,0.98
2023-06-30T08:19:22.066Z,0.20
2023-06-30T08:22:04.454Z,0.43
2023-06-30T08:24:32.736Z,0.30
2023-06-30T08:27:00.834Z,0.40
2023-06-30T08:29:29.067Z,0.30
2023-06-30T08:31:58.612Z,0.38
2023-06-30T08:34:27.325Z,0.17
2023-06-30T08:36:55.664Z,0.17
2023-06-30T08:39:24.227Z,0.17
2023-06-30T08:41:56.114Z,0.20
2023-06-30T08:44:26.529Z,0.20
2023-06-30T08:46:56.369Z,0.28
2023-06-30T08:49:27.246Z,0.20
2023-06-30T08:51:58.243Z,0.20
2023-06-30T08:54:26.868Z,0.20
2023-06-30T08:56:56.516Z,0.20
2023-06-30T08:59:24.784Z,0.20
2023-06-30T09:01:55.576Z,0.32
2023-06-30T09:04:26.389Z,0.13
2023-06-30T09:06:55.977Z,0.23
2023-06-30T09:09:28.372Z,0.32
2023-06-30T09:11:57.362Z,0.30
2023-06-30T09:14:25.775Z,0.45
2023-06-30T09:16:54.048Z,0.30
2023-06-30T09:19:22.725Z,0.30
2023-06-30T09:21:53.145Z,0.40
2023-06-30T09:24:21.372Z,0.40
2023-06-30T09:26:51.051Z,0.30
2023-06-30T09:29:20.163Z,0.30
2023-06-30T09:31:52.166Z,0.30
2023-06-30T09:34:21.653Z,0.30
2023-06-30T09:36:50.788Z,0.40
2023-06-30T09:39:21.056Z,0.43
2023-06-30T09:41:50.588Z,0.40
2023-06-30T09:44:21.617Z,0.32
2023-06-30T09:46:50.388Z,0.40
2023-06-30T09:49:26.103Z,0.50
2023-06-30T09:51:56.508Z,0.32
2023-06-30T09:54:43.939Z,0.20
2023-06-30T09:57:13.261Z,0.20
2023-06-30T09:59:41.520Z,0.40
2023-06-30T10:02:11.545Z,0.30
2023-06-30T10:04:39.674Z,0.50
2023-06-30T10:07:09.552Z,0.50
2023-06-30T10:09:42.430Z,0.30
2023-06-30T10:12:12.153Z,0.20
2023-06-30T10:14:41.364Z,0.30
2023-06-30T10:17:10.652Z,0.30
2023-06-30T10:19:41.488Z,0.55
2023-06-30T10:22:10.111Z,0.32
2023-06-30T10:24:42.998Z,0.60
2023-06-30T10:27:14.125Z,0.57
2023-06-30T10:29:42.430Z,0.40
2023-06-30T10:32:13.063Z,0.40
2023-06-30T10:34:41.672Z,0.30
2023-06-30T10:37:10.458Z,0.65
2023-06-30T10:39:40.287Z,0.40
2023-06-30T10:42:08.738Z,0.32
2023-06-30T10:44:40.688Z,0.50
2023-06-30T10:47:09.260Z,0.55
2023-06-30T10:49:39.694Z,0.40
2023-06-30T10:52:11.156Z,0.40
2023-06-30T10:57:15.648Z,0.40
2023-06-30T10:59:45.073Z,0.50
2023-06-30T11:02:34.787Z,0.50
2023-06-30T11:05:21.743Z,0.90
2023-06-30T11:07:51.049Z,0.50
2023-06-30T11:10:35.785Z,0.57
2023-06-30T11:13:06.699Z,0.40
2023-06-30T11:15:50.451Z,0.50
2023-06-30T11:18:23.050Z,0.57
2023-06-30T11:21:01.794Z,0.40
2023-06-30T11:23:31.045Z,0.70
2023-06-30T11:26:12.791Z,0.60
2023-06-30T11:28:42.074Z,0.60
2023-06-30T11:31:12.045Z,0.40
2023-06-30T11:33:41.450Z,0.65
2023-06-30T11:36:14.845Z,0.60
2023-06-30T11:38:46.122Z,0.45
2023-06-30T11:41:19.898Z,0.90
2023-06-30T11:43:50.868Z,0.60
2023-06-30T11:46:19.380Z,0.60
2023-06-30T11:48:47.646Z,0.45
2023-06-30T11:51:15.888Z,0.60
2023-06-30T11:53:45.697Z,0.55
2023-06-30T11:56:15.381Z,0.55
2023-06-30T11:58:45.398Z,0.55
2023-06-30T12:01:13.661Z,0.50
2023-06-30T12:03:41.945Z,0.70
2023-06-30T12:06:10.197Z,0.80
2023-06-30T12:08:40.145Z,0.70
2023-06-30T12:11:08.959Z,0.80
2023-06-30T12:13:42.194Z,0.77
2023-06-30T12:16:10.526Z,1.13
2023-06-30T12:18:39.539Z,0.95
2023-06-30T12:21:11.747Z,0.60
2023-06-30T12:23:43.065Z,0.70
2023-06-30T12:26:11.295Z,0.60
2023-06-30T12:28:41.116Z,0.93
2023-06-30T12:31:09.357Z,0.68
2023-06-30T12:33:38.439Z,1.00
2023-06-30T12:36:07.773Z,0.57
2023-06-30T12:38:35.982Z,0.82
2023-06-30T12:41:05.153Z,0.93
2023-06-30T12:43:34.549Z,0.70
2023-06-30T12:46:04.568Z,0.80
2023-06-30T12:48:33.634Z,0.70
2023-06-30T12:51:01.892Z,0.60
2023-06-30T12:53:30.073Z,0.60
2023-06-30T12:55:58.345Z,0.70
2023-06-30T12:58:28.476Z,0.70
2023-06-30T13:01:02.340Z,0.80
2023-06-30T13:03:34.067Z,0.60
2023-06-30T13:06:02.357Z,1.13
2023-06-30T13:08:30.698Z,0.90
2023-06-30T13:10:58.956Z,0.98
2023-06-30T13:13:27.282Z,0.50
2023-06-30T13:15:55.515Z,0.50
2023-06-30T13:18:23.782Z,0.90
2023-06-30T13:20:54.239Z,0.65
2023-06-30T13:23:32.188Z,0.60
2023-06-30T13:26:05.379Z,0.68
2023-06-30T13:28:33.652Z,0.68
2023-06-30T13:31:02.371Z,0.63
2023-06-30T13:33:30.673Z,0.75
2023-06-30T13:36:00.594Z,0.65
2023-06-30T13:38:28.786Z,0.63
2023-06-30T13:40:57.094Z,1.00
2023-06-30T13:43:25.404Z,0.95
2023-06-30T13:45:55.086Z,0.75
2023-06-30T13:48:23.531Z,0.50
2023-06-30T13:50:51.812Z,0.50
2023-06-30T13:53:23.294Z,0.60
2023-06-30T13:55:54.201Z,0.70
2023-06-30T13:58:22.486Z,0.60
2023-06-30T14:00:50.904Z,0.50
2023-06-30T14:03:19.308Z,0.60
2023-06-30T14:05:50.625Z,0.50
2023-06-30T14:08:19.577Z,0.50
2023-06-30T14:10:49.171Z,0.60
2023-06-30T14:13:17.420Z,0.50
2023-06-30T14:15:46.081Z,0.52
2023-06-30T14:18:14.661Z,0.50
2023-06-30T14:20:42.930Z,0.40
2023-06-30T14:23:11.270Z,0.60
2023-06-30T14:25:39.590Z,0.50
2023-06-30T14:28:09.218Z,0.40
2023-06-30T14:30:40.685Z,0.68
2023-06-30T14:33:08.965Z,0.60
2023-06-30T14:35:37.318Z,0.40
2023-06-30T14:38:05.569Z,0.40
2023-06-30T14:40:33.837Z,0.50
2023-06-30T14:43:02.157Z,0.57
2023-06-30T14:45:31.812Z,0.95
2023-06-30T14:48:00.352Z,0.40
2023-06-30T14:50:28.750Z,0.32
2023-06-30T14:52:57.025Z,0.40
2023-06-30T14:55:25.275Z,0.68
2023-06-30T14:57:53.625Z,0.82
2023-06-30T15:00:21.974Z,0.60
2023-06-30T15:02:51.803Z,0.80
2023-06-30T15:05:20.400Z,0.63
2023-06-30T15:07:48.965Z,0.60
2023-06-30T15:10:17.153Z,0.60
2023-06-30T15:12:45.310Z,0.80
2023-06-30T15:15:13.488Z,0.52
2023-06-30T15:17:41.780Z,0.70
2023-06-30T15:20:12.275Z,0.47
2023-06-30T15:22:40.601Z,0.60
2023-06-30T15:25:09.415Z,0.70
2023-06-30T15:27:37.636Z,0.52
2023-06-30T15:30:07.495Z,0.70
2023-06-30T15:32:35.931Z,0.40
2023-06-30T15:35:05.940Z,0.40
2023-06-30T15:37:35.657Z,0.50
2023-06-30T15:40:03.942Z,0.50
2023-06-30T15:42:33.078Z,0.35
2023-06-30T15:45:01.393Z,0.40
2023-06-30T15:47:29.609Z,0.30
2023-06-30T15:49:58.297Z,0.60
2023-06-30T15:52:26.620Z,0.50
2023-06-30T15:55:09.070Z,0.70
2023-06-30T15:57:37.630Z,0.60
2023-06-30T16:00:08.063Z,0.60
2023-06-30T16:02:39.580Z,0.43
2023-06-30T16:05:09.993Z,0.40
2023-06-30T16:07:38.535Z,0.73
2023-06-30T16:10:08.831Z,0.40
2023-06-30T16:12:37.233Z,0.50
2023-06-30T16:15:08.921Z,0.60
2023-06-30T16:17:37.638Z,0.70
2023-06-30T16:20:06.809Z,0.90
2023-06-30T16:22:35.266Z,0.60
2023-06-30T16:25:03.547Z,0.73
2023-06-30T16:27:33.418Z,0.60
2023-06-30T16:30:24.825Z,0.43
2023-06-30T16:32:56.100Z,0.70
2023-06-30T16:35:25.863Z,0.50
2023-06-30T16:37:54.420Z,0.35
2023-06-30T16:40:22.948Z,0.40
2023-06-30T16:42:52.541Z,0.50
2023-06-30T16:45:20.935Z,0.50
2023-06-30T16:47:49.317Z,0.90
2023-06-30T16:50:18.244Z,0.73
2023-06-30T16:52:46.788Z,0.90
2023-06-30T16:55:15.199Z,0.60
2023-06-30T16:57:44.822Z,0.70
2023-06-30T17:00:15.601Z,0.73
2023-06-30T17:02:44.299Z,0.70
2023-06-30T17:05:14.932Z,0.60
2023-06-30T17:07:43.130Z,0.80
2023-06-30T17:10:12.136Z,0.55
2023-06-30T17:12:40.666Z,0.65
2023-06-30T17:15:10.787Z,0.40
2023-06-30T17:17:40.383Z,0.52
2023-06-30T17:20:09.884Z,0.50
2023-06-30T17:22:38.577Z,0.70
2023-06-30T17:25:08.050Z,0.60
2023-06-30T17:27:36.288Z,1.00
2023-06-30T17:30:04.725Z,0.80
2023-06-30T17:32:33.000Z,0.70
2023-06-30T17:35:02.619Z,0.70
2023-06-30T17:37:30.883Z,0.50
2023-06-30T17:39:59.125Z,0.68
2023-06-30T17:42:27.478Z,0.60
2023-06-30T17:44:55.734Z,0.80
2023-06-30T17:47:24.007Z,0.52
2023-06-30T17:49:52.323Z,0.52
2023-06-30T17:52:22.144Z,1.08
2023-06-30T17:54:50.369Z,0.90
2023-06-30T17:57:18.586Z,0.70
2023-06-30T17:59:46.687Z,0.80
2023-06-30T18:02:14.867Z,0.60
2023-06-30T18:04:43.232Z,0.80
2023-06-30T18:07:13.464Z,0.60
2023-06-30T18:09:44.642Z,0.80
2023-06-30T18:12:14.009Z,0.70
2023-06-30T18:14:43.761Z,0.60
2023-06-30T18:17:11.975Z,0.68
2023-06-30T18:19:42.056Z,0.80
2023-06-30T18:22:10.676Z,0.90
2023-06-30T18:24:38.820Z,1.02
2023-06-30T18:27:08.629Z,0.70
2023-06-30T18:29:38.804Z,0.60
2023-06-30T18:32:08.389Z,1.02
2023-06-30T18:34:36.898Z,0.82
2023-06-30T18:37:08.499Z,0.70
2023-06-30T18:39:36.884Z,0.50
2023-06-30T18:42:05.475Z,0.95
2023-06-30T18:44:36.329Z,0.68
2023-06-30T18:47:04.909Z,0.60
2023-06-30T18:49:33.180Z,0.65
2023-06-30T18:52:01.493Z,0.80
2023-06-30T18:54:29.808Z,0.57
2023-06-30T18:56:58.554Z,0.60
2023-06-30T18:59:26.827Z,0.73
2023-06-30T19:01:56.669Z,0.60
2023-06-30T19:04:25.101Z,0.60
2023-06-30T19:06:53.448Z,0.80
2023-06-30T19:09:21.585Z,1.05
2023-06-30T19:11:49.810Z,0.80
2023-06-30T19:14:18.022Z,1.17
2023-06-30T19:16:46.303Z,0.77
2023-06-30T19:19:16.297Z,0.80
2023-06-30T19:21:44.531Z,0.90
2023-06-30T19:24:12.857Z,1.02
2023-06-30T19:26:41.055Z,0.90
2023-06-30T19:29:09.262Z,0.90
2023-06-30T19:31:37.678Z,0.95
2023-06-30T19:34:06.016Z,1.25
2023-06-30T19:36:37.335Z,0.85
2023-06-30T19:39:05.962Z,0.98
2023-06-30T19:41:34.258Z,0.90
2023-06-30T19:44:02.639Z,0.85
2023-06-30T19:46:32.550Z,0.80
2023-06-30T19:49:00.833Z,0.90
2023-06-30T19:51:29.057Z,1.10
2023-06-30T19:53:58.587Z,1.05
2023-06-30T19:56:26.774Z,0.88
2023-06-30T19:58:55.042Z,1.00
2023-06-30T20:01:26.858Z,1.05
2023-06-30T20:03:55.845Z,1.00
2023-06-30T20:06:24.280Z,1.10
2023-06-30T20:08:52.407Z,1.40
2023-06-30T20:11:22.082Z,1.20
2023-06-30T20:13:50.256Z,0.90
2023-06-30T20:16:18.542Z,1.25
2023-06-30T20:18:46.800Z,1.02
2023-06-30T20:21:15.011Z,1.13
2023-06-30T20:23:43.156Z,1.40
2023-06-30T20:26:11.389Z,1.30
2023-06-30T20:28:40.999Z,1.00
2023-06-30T20:31:09.318Z,1.35
2023-06-30T20:33:37.910Z,1.00
2023-06-30T20:36:06.387Z,0.90
2023-06-30T20:38:34.693Z,0.75
2023-06-30T20:41:02.982Z,0.77
2023-06-30T20:43:31.364Z,0.80
2023-06-30T20:46:01.024Z,0.80
2023-06-30T20:48:29.420Z,1.20
2023-06-30T20:50:57.629Z,1.25
2023-06-30T20:53:25.846Z,0.80
2023-06-30T20:55:56.236Z,1.20
2023-06-30T20:58:24.425Z,0.90
2023-06-30T21:00:52.675Z,1.20
2023-06-30T21:03:22.501Z,1.05
2023-06-30T21:05:50.891Z,1.10
2023-06-30T21:08:19.130Z,0.70
2023-06-30T21:10:47.499Z,0.90
2023-06-30T21:13:16.048Z,0.77
2023-06-30T21:15:44.319Z,0.57
2023-06-30T21:18:12.632Z,1.25
2023-06-30T21:20:42.286Z,0.90
2023-06-30T21:23:10.499Z,0.85
2023-06-30T21:25:39.308Z,0.68
2023-06-30T21:28:08.509Z,0.73
2023-06-30T21:30:36.763Z,0.70
2023-06-30T21:33:05.151Z,1.02
2023-06-30T21:35:33.857Z,0.88
2023-06-30T21:38:03.523Z,0.90
2023-06-30T21:40:31.701Z,0.80
2023-06-30T21:42:59.970Z,0.70
2023-06-30T21:45:28.086Z,1.15
2023-06-30T21:47:56.402Z,0.80
2023-06-30T21:50:24.646Z,1.02
2023-06-30T21:52:52.926Z,0.73
2023-06-30T21:55:22.859Z,0.82
2023-06-30T21:57:51.175Z,0.90
2023-06-30T22:00:19.994Z,0.65
2023-06-30T22:02:57.126Z,0.90
2023-06-30T22:05:26.213Z,0.90
2023-06-30T22:07:55.638Z,1.10
2023-06-30T22:10:25.408Z,0.90
2023-06-30T22:12:53.627Z,1.10
2023-06-30T22:15:23.242Z,0.90
2023-06-30T22:17:52.857Z,1.02
2023-06-30T22:20:22.975Z,2.47
2023-06-30T22:22:51.216Z,1.08
2023-06-30T22:25:31.434Z,1.08
2023-06-30T22:28:03.538Z,1.02
2023-06-30T22:30:31.767Z,1.00
2023-06-30T22:33:00.257Z,0.90
2023-06-30T22:35:28.563Z,0.95
2023-06-30T22:37:56.793Z,0.80
2023-06-30T22:40:24.907Z,0.80
2023-06-30T22:42:53.085Z,0.90
2023-06-30T22:45:22.939Z,0.80
2023-06-30T22:47:51.153Z,0.85
2023-06-30T22:50:19.499Z,0.68
2023-06-30T22:52:47.767Z,1.13
2023-06-30T22:55:16.019Z,1.02
2023-06-30T22:57:44.278Z,0.77
2023-06-30T23:00:13.533Z,0.80
2023-06-30T23:02:43.309Z,0.85
2023-06-30T23:05:11.688Z,1.00
2023-06-30T23:07:39.947Z,0.90
2023-06-30T23:10:09.754Z,1.20
2023-06-30T23:12:38.445Z,0.88
2023-06-30T23:15:07.549Z,1.17
2023-06-30T23:17:35.948Z,0.73
2023-06-30T23:20:06.780Z,1.10
2023-06-30T23:22:35.028Z,0.87
2023-06-30T23:25:03.205Z,0.70
2023-06-30T23:27:31.437Z,0.95
2023-06-30T23:29:59.763Z,0.90
2023-06-30T23:32:27.972Z,1.13
2023-06-30T23:34:56.143Z,1.15
2023-06-30T23:37:25.780Z,1.13
2023-06-30T23:39:53.975Z,1.25
2023-06-30T23:42:22.262Z,1.25
2023-06-30T23:44:50.567Z,1.05
2023-06-30T23:47:19.094Z,1.10
2023-06-30T23:49:48.798Z,1.20
2023-06-30T23:52:17.772Z,1.08
2023-06-30T23:54:47.426Z,1.25
2023-06-30T23:57:15.584Z,1.40
2023-06-30T23:59:43.836Z,1.10
